createdAt,value
2022-10-09T00:00:15.693Z,17.00
2022-10-09T00:01:15.676Z,18.70
2022-10-09T00:02:15.691Z,18.80
2022-10-09T00:03:15.658Z,17.80
2022-10-09T00:04:15.698Z,17.90
2022-10-09T00:05:15.676Z,18.30
2022-10-09T00:06:15.635Z,16.60
2022-10-09T00:07:15.627Z,17.40
2022-10-09T00:08:15.622Z,20.60
2022-10-09T00:09:15.642Z,20.50
2022-10-09T00:10:15.610Z,15.90
2022-10-09T00:11:15.603Z,24.10
2022-10-09T00:12:15.589Z,16.90
2022-10-09T00:13:15.588Z,22.50
2022-10-09T00:14:15.599Z,16.50
2022-10-09T00:15:15.565Z,19.60
2022-10-09T00:16:15.609Z,12.10
2022-10-09T00:17:15.558Z,15.40
2022-10-09T00:18:15.548Z,12.50
2022-10-09T00:19:15.567Z,14.50
2022-10-09T00:20:15.556Z,19.00
2022-10-09T00:21:15.521Z,15.50
2022-10-09T00:22:15.518Z,20.20
2022-10-09T00:23:15.501Z,15.50
2022-10-09T00:24:15.535Z,15.60
2022-10-09T00:25:15.500Z,19.30
2022-10-09T00:26:15.484Z,15.80
2022-10-09T00:27:15.478Z,18.30
2022-10-09T00:28:15.553Z,18.40
2022-10-09T00:29:15.497Z,17.60
2022-10-09T00:30:15.467Z,18.60
2022-10-09T00:31:15.552Z,21.90
2022-10-09T00:32:15.451Z,18.10
2022-10-09T00:33:15.433Z,11.80
2022-10-09T00:34:15.700Z,17.60
2022-10-09T00:35:15.422Z,14.40
2022-10-09T00:36:15.426Z,17.90
2022-10-09T00:37:15.416Z,14.80
2022-10-09T00:38:15.445Z,14.50
2022-10-09T00:39:15.390Z,15.80
2022-10-09T00:40:15.447Z,17.50
2022-10-09T00:41:15.376Z,17.40
2022-10-09T00:42:15.424Z,18.90
2022-10-09T00:43:15.359Z,19.80
2022-10-09T00:44:15.355Z,17.70
2022-10-09T00:45:15.372Z,15.30
2022-10-09T00:46:15.381Z,16.70
2022-10-09T00:47:15.360Z,16.80
2022-10-09T00:48:15.341Z,16.50
2022-10-09T00:49:15.309Z,16.00
2022-10-09T00:50:15.332Z,16.00
2022-10-09T00:51:15.301Z,15.50
2022-10-09T00:52:15.312Z,16.70
2022-10-09T00:53:15.295Z,18.20
2022-10-09T00:54:15.325Z,14.10
2022-10-09T00:55:15.265Z,16.40
2022-10-09T00:56:15.283Z,17.70
2022-10-09T00:57:15.255Z,16.30
2022-10-09T00:58:15.271Z,16.40
2022-10-09T00:59:15.311Z,15.90
2022-10-09T01:00:15.247Z,18.70
2022-10-09T01:01:15.279Z,19.40
2022-10-09T01:02:15.316Z,20.80
2022-10-09T01:03:15.212Z,17.90
2022-10-09T01:04:15.234Z,22.10
2022-10-09T01:05:15.247Z,29.60
2022-10-09T01:06:15.182Z,22.10
2022-10-09T01:07:15.190Z,28.40
2022-10-09T01:08:15.166Z,21.90
2022-10-09T01:09:15.175Z,21.50
2022-10-09T01:10:15.147Z,23.60
2022-10-09T01:11:15.141Z,27.20
2022-10-09T01:12:15.133Z,19.70
2022-10-09T01:13:15.142Z,18.00
2022-10-09T01:14:15.148Z,17.20
2022-10-09T01:15:15.157Z,18.60
2022-10-09T01:16:15.325Z,18.20
2022-10-09T01:17:15.123Z,21.10
2022-10-09T01:18:15.101Z,15.00
2022-10-09T01:19:15.111Z,17.50
2022-10-09T01:20:15.099Z,16.70
2022-10-09T01:21:15.078Z,14.50
2022-10-09T01:22:15.063Z,25.80
2022-10-09T01:23:15.066Z,23.50
2022-10-09T01:24:15.038Z,14.40
2022-10-09T01:25:15.107Z,13.70
2022-10-09T01:26:15.028Z,19.20
2022-10-09T01:27:15.009Z,17.30
2022-10-09T01:28:16.054Z,18.10
2022-10-09T01:29:15.012Z,12.40
2022-10-09T01:30:15.026Z,15.80
2022-10-09T01:31:15.068Z,10.50
2022-10-09T01:32:15.013Z,14.50
2022-10-09T01:33:14.972Z,13.80
2022-10-09T01:34:14.982Z,14.20
2022-10-09T01:35:14.989Z,12.90
2022-10-09T01:36:14.951Z,12.40
2022-10-09T01:37:14.943Z,12.90
2022-10-09T01:38:14.939Z,15.60
2022-10-09T01:39:14.934Z,16.50
2022-10-09T01:40:14.949Z,11.80
2022-10-09T01:41:14.911Z,17.60
2022-10-09T01:42:14.905Z,24.90
2022-10-09T01:43:14.893Z,18.50
2022-10-09T01:44:14.901Z,16.90
2022-10-09T01:45:14.906Z,18.50
2022-10-09T01:46:14.897Z,20.40
2022-10-09T01:47:14.877Z,15.60
2022-10-09T01:48:14.856Z,16.00
2022-10-09T01:49:14.865Z,13.70
2022-10-09T01:50:14.875Z,17.00
2022-10-09T01:51:14.838Z,17.60
2022-10-09T01:52:14.834Z,13.20
2022-10-09T01:53:14.832Z,12.40
2022-10-09T01:54:14.818Z,10.20
2022-10-09T01:55:14.844Z,9.90
2022-10-09T01:56:14.814Z,11.30
2022-10-09T01:57:14.791Z,10.00
2022-10-09T01:58:14.825Z,7.90
2022-10-09T01:59:16.091Z,10.30
2022-10-09T02:00:15.800Z,7.60
2022-10-09T02:01:14.843Z,7.00
2022-10-09T02:02:14.888Z,6.40
2022-10-09T02:03:14.761Z,8.50
2022-10-09T02:04:14.739Z,6.80
2022-10-09T02:05:14.757Z,8.50
2022-10-09T02:06:14.735Z,6.00
2022-10-09T02:07:14.820Z,8.20
2022-10-09T02:08:14.717Z,6.00
2022-10-09T02:09:14.713Z,12.80
2022-10-09T02:10:14.757Z,9.40
2022-10-09T02:11:14.694Z,11.50
2022-10-09T02:12:14.686Z,9.80
2022-10-09T02:13:14.682Z,11.50
2022-10-09T02:14:14.672Z,9.30
2022-10-09T02:15:14.697Z,8.20
2022-10-09T02:16:14.690Z,10.00
2022-10-09T02:17:14.645Z,8.30
2022-10-09T02:18:14.644Z,9.80
2022-10-09T02:19:14.634Z,9.90
2022-10-09T02:20:14.646Z,7.60
2022-10-09T02:21:14.615Z,7.40
2022-10-09T02:22:14.607Z,5.30
2022-10-09T02:23:14.603Z,4.90
2022-10-09T02:24:14.592Z,6.70
2022-10-09T02:25:14.625Z,6.20
2022-10-09T02:26:14.605Z,5.00
2022-10-09T02:27:14.578Z,6.60
2022-10-09T02:28:14.599Z,5.90
2022-10-09T02:29:14.562Z,7.90
2022-10-09T02:30:14.609Z,5.20
2022-10-09T02:31:14.577Z,4.70
2022-10-09T02:32:14.530Z,8.80
2022-10-09T02:33:14.531Z,5.70
2022-10-09T02:34:14.543Z,7.50
2022-10-09T02:35:14.516Z,7.30
2022-10-09T02:36:14.530Z,14.60
2022-10-09T02:37:14.520Z,6.20
2022-10-09T02:38:14.494Z,5.70
2022-10-09T02:39:14.482Z,6.50
2022-10-09T02:40:14.473Z,7.60
2022-10-09T02:41:14.526Z,10.20
2022-10-09T02:42:14.469Z,5.40
2022-10-09T02:43:14.458Z,5.50
2022-10-09T02:44:14.476Z,5.30
2022-10-09T02:45:14.438Z,7.60
2022-10-09T02:46:14.514Z,4.90
2022-10-09T02:47:14.422Z,6.70
2022-10-09T02:48:14.415Z,8.50
2022-10-09T02:49:14.414Z,6.00
2022-10-09T02:50:14.396Z,6.00
2022-10-09T02:51:14.421Z,7.00
2022-10-09T02:52:14.393Z,8.60
2022-10-09T02:53:14.377Z,7.00
2022-10-09T02:54:14.375Z,7.50
2022-10-09T02:55:14.360Z,5.60
2022-10-09T02:56:14.375Z,8.00
2022-10-09T02:57:14.344Z,6.90
2022-10-09T02:58:14.341Z,7.40
2022-10-09T02:59:14.376Z,10.60
2022-10-09T03:00:14.340Z,6.50
2022-10-09T03:01:14.343Z,6.90
2022-10-09T03:02:14.464Z,8.00
2022-10-09T03:03:14.311Z,8.80
2022-10-09T03:04:14.297Z,8.70
2022-10-09T03:05:14.298Z,7.50
2022-10-09T03:06:14.302Z,7.70
2022-10-09T03:07:14.283Z,8.80
2022-10-09T03:08:14.265Z,10.70
2022-10-09T03:09:14.258Z,7.60
2022-10-09T03:10:14.250Z,9.30
2022-10-09T03:11:14.276Z,6.60
2022-10-09T03:12:14.232Z,10.20
2022-10-09T03:13:14.235Z,6.10
2022-10-09T03:14:14.252Z,7.30
2022-10-09T03:15:14.220Z,7.60
2022-10-09T03:16:14.259Z,6.10
2022-10-09T03:17:14.201Z,6.80
2022-10-09T03:18:14.195Z,7.80
2022-10-09T03:19:14.188Z,10.60
2022-10-09T03:20:14.178Z,8.50
2022-10-09T03:21:14.204Z,6.10
2022-10-09T03:22:14.157Z,5.40
2022-10-09T03:23:14.156Z,8.70
2022-10-09T03:24:14.140Z,8.50
2022-10-09T03:25:15.137Z,6.30
2022-10-09T03:26:14.155Z,5.90
2022-10-09T03:27:14.127Z,5.10
2022-10-09T03:28:14.204Z,7.20
2022-10-09T03:29:14.107Z,7.30
2022-10-09T03:30:14.103Z,8.50
2022-10-09T03:31:27.652Z,6.30
2022-10-09T03:32:16.132Z,12.30
2022-10-09T03:33:14.083Z,8.00
2022-10-09T03:34:14.075Z,9.60
2022-10-09T03:35:14.060Z,8.70
2022-10-09T03:36:14.126Z,8.80
2022-10-09T03:37:14.063Z,8.30
2022-10-09T03:38:14.045Z,10.10
2022-10-09T03:39:14.040Z,8.00
2022-10-09T03:40:14.032Z,7.60
2022-10-09T03:41:14.049Z,8.80
2022-10-09T03:42:14.056Z,7.70
2022-10-09T03:43:14.002Z,10.10
2022-10-09T03:44:14.004Z,9.20
2022-10-09T03:45:13.983Z,10.30
2022-10-09T03:46:14.032Z,10.20
2022-10-09T03:47:13.999Z,9.50
2022-10-09T03:48:13.960Z,10.70
2022-10-09T03:49:13.958Z,9.40
2022-10-09T03:50:13.941Z,9.50
2022-10-09T03:51:13.942Z,11.80
2022-10-09T03:52:13.962Z,9.80
2022-10-09T03:53:13.917Z,10.10
2022-10-09T03:54:13.919Z,9.50
2022-10-09T03:55:13.912Z,11.00
2022-10-09T03:56:13.901Z,11.90
2022-10-09T03:57:13.919Z,10.10
2022-10-09T03:58:13.886Z,12.00
2022-10-09T03:59:13.878Z,11.30
2022-10-09T04:00:13.875Z,12.20
2022-10-09T04:01:13.943Z,13.70
2022-10-09T04:02:13.933Z,12.80
2022-10-09T04:03:13.847Z,7.90
2022-10-09T04:04:13.840Z,9.20
2022-10-09T04:05:13.844Z,19.30
2022-10-09T04:06:13.842Z,9.40
2022-10-09T04:07:13.845Z,11.20
2022-10-09T04:08:13.812Z,8.80
2022-10-09T04:09:13.803Z,9.80
2022-10-09T04:10:13.795Z,12.50
2022-10-09T04:11:13.789Z,6.60
2022-10-09T04:12:13.800Z,6.40
2022-10-09T04:13:13.771Z,7.60
2022-10-09T04:14:13.764Z,9.30
2022-10-09T04:15:13.759Z,7.60
2022-10-09T04:16:13.796Z,8.70
2022-10-09T04:17:13.771Z,7.70
2022-10-09T04:18:13.730Z,8.80
2022-10-09T04:19:13.731Z,12.80
2022-10-09T04:20:13.719Z,17.10
2022-10-09T04:21:13.712Z,26.90
2022-10-09T04:22:13.728Z,31.10
2022-10-09T04:23:13.699Z,25.70
2022-10-09T04:24:13.688Z,17.10
2022-10-09T04:25:13.684Z,11.40
2022-10-09T04:26:13.677Z,13.10
2022-10-09T04:27:13.696Z,15.50
2022-10-09T04:28:13.687Z,13.60
2022-10-09T04:29:14.660Z,21.50
2022-10-09T04:30:13.653Z,19.60
2022-10-09T04:31:13.668Z,23.10
2022-10-09T04:32:13.655Z,10.60
2022-10-09T04:33:13.622Z,10.60
2022-10-09T04:34:13.613Z,9.90
2022-10-09T04:35:13.606Z,5.80
2022-10-09T04:36:13.595Z,5.40
2022-10-09T04:37:13.612Z,5.70
2022-10-09T04:38:13.592Z,5.80
2022-10-09T04:39:13.581Z,7.40
2022-10-09T04:40:13.573Z,5.70
2022-10-09T04:41:13.564Z,7.40
2022-10-09T04:42:13.583Z,5.90
2022-10-09T04:43:13.563Z,8.70
2022-10-09T04:44:13.552Z,5.70
2022-10-09T04:45:13.540Z,4.20
2022-10-09T04:46:13.586Z,5.60
2022-10-09T04:47:13.543Z,6.30
2022-10-09T04:48:13.508Z,8.40
2022-10-09T04:49:13.506Z,5.50
2022-10-09T04:50:13.500Z,4.50
2022-10-09T04:51:13.495Z,4.50
2022-10-09T04:52:13.510Z,4.40
2022-10-09T04:53:13.521Z,6.60
2022-10-09T04:54:13.474Z,3.90
2022-10-09T04:55:13.472Z,4.30
2022-10-09T04:56:13.450Z,4.10
2022-10-09T04:57:13.468Z,3.60
2022-10-09T04:58:13.449Z,5.40
2022-10-09T04:59:13.430Z,6.20
2022-10-09T05:00:13.427Z,4.00
2022-10-09T05:01:13.449Z,6.30
2022-10-09T05:02:13.490Z,7.40
2022-10-09T05:03:13.406Z,7.60
2022-10-09T05:04:13.395Z,9.50
2022-10-09T05:05:13.389Z,8.80
2022-10-09T05:06:13.383Z,7.50
2022-10-09T05:07:13.410Z,6.90
2022-10-09T05:08:13.364Z,6.60
2022-10-09T05:09:13.362Z,5.20
2022-10-09T05:10:13.355Z,5.30
2022-10-09T05:11:13.337Z,8.90
2022-10-09T05:12:13.357Z,11.60
2022-10-09T05:13:13.335Z,14.00
2022-10-09T05:14:13.320Z,9.80
2022-10-09T05:15:13.311Z,5.50
2022-10-09T05:16:13.365Z,8.00
2022-10-09T05:17:14.699Z,6.60
2022-10-09T05:18:14.314Z,6.60
2022-10-09T05:19:13.296Z,6.00
2022-10-09T05:20:13.283Z,6.90
2022-10-09T05:21:13.261Z,5.80
2022-10-09T05:22:13.257Z,6.50
2022-10-09T05:23:13.274Z,6.60
2022-10-09T05:24:13.261Z,5.50
2022-10-09T05:25:14.230Z,7.70
2022-10-09T05:26:13.225Z,6.50
2022-10-09T05:27:13.223Z,6.80
2022-10-09T05:28:13.315Z,6.90
2022-10-09T05:29:13.202Z,8.00
2022-10-09T05:30:13.194Z,5.90
2022-10-09T05:31:13.231Z,8.10
2022-10-09T05:32:13.240Z,6.10
2022-10-09T05:33:13.207Z,8.00
2022-10-09T05:34:13.169Z,7.50
2022-10-09T05:35:13.164Z,8.60
2022-10-09T05:36:13.153Z,8.40
2022-10-09T05:37:13.150Z,8.80
2022-10-09T05:38:13.168Z,9.30
2022-10-09T05:39:13.134Z,10.60
2022-10-09T05:40:13.123Z,8.80
2022-10-09T05:41:13.123Z,6.50
2022-10-09T05:42:13.118Z,6.70
2022-10-09T05:43:13.124Z,6.60
2022-10-09T05:44:13.096Z,5.60
2022-10-09T05:45:13.085Z,6.40
2022-10-09T05:46:13.099Z,7.40
2022-10-09T05:47:13.071Z,5.80
2022-10-09T05:48:13.130Z,6.50
2022-10-09T05:49:13.069Z,5.10
2022-10-09T05:50:13.057Z,8.10
2022-10-09T05:51:13.047Z,7.20
2022-10-09T05:52:13.038Z,6.80
2022-10-09T05:53:13.058Z,9.20
2022-10-09T05:54:13.040Z,5.80
2022-10-09T05:55:13.012Z,7.40
2022-10-09T05:56:13.017Z,6.30
2022-10-09T05:57:13.019Z,6.50
2022-10-09T05:58:13.028Z,6.10
2022-10-09T05:59:12.991Z,9.30
2022-10-09T06:00:12.984Z,6.30
2022-10-09T06:01:13.050Z,8.80
2022-10-09T06:02:13.020Z,7.50
2022-10-09T06:03:12.987Z,7.50
2022-10-09T06:04:12.951Z,8.90
2022-10-09T06:05:12.945Z,6.40
2022-10-09T06:06:12.934Z,7.10
2022-10-09T06:07:12.935Z,8.20
2022-10-09T06:08:12.944Z,8.50
2022-10-09T06:09:12.908Z,8.50
2022-10-09T06:10:12.900Z,7.50
2022-10-09T06:11:12.899Z,10.70
2022-10-09T06:12:12.882Z,9.60
2022-10-09T06:13:12.904Z,12.70
2022-10-09T06:14:12.868Z,11.10
2022-10-09T06:15:12.862Z,8.50
2022-10-09T06:16:12.924Z,7.30
2022-10-09T06:17:12.874Z,7.30
2022-10-09T06:18:12.877Z,8.00
2022-10-09T06:19:12.834Z,12.20
2022-10-09T06:20:12.822Z,10.70
2022-10-09T06:21:12.824Z,12.30
2022-10-09T06:22:12.819Z,9.00
2022-10-09T06:23:12.857Z,11.30
2022-10-09T06:24:12.804Z,6.10
2022-10-09T06:25:12.795Z,6.70
2022-10-09T06:26:12.782Z,8.00
2022-10-09T06:27:12.769Z,4.20
2022-10-09T06:28:12.778Z,8.00
2022-10-09T06:29:12.786Z,6.80
2022-10-09T06:30:12.750Z,6.70
2022-10-09T06:31:12.789Z,7.40
2022-10-09T06:32:12.734Z,3.80
2022-10-09T06:33:12.724Z,5.20
2022-10-09T06:34:12.751Z,7.10
2022-10-09T06:35:12.754Z,3.90
2022-10-09T06:36:12.725Z,3.50
2022-10-09T06:37:13.697Z,4.50
2022-10-09T06:38:12.685Z,4.50
2022-10-09T06:39:12.709Z,4.20
2022-10-09T06:40:12.706Z,4.00
2022-10-09T06:41:12.672Z,5.00
2022-10-09T06:42:12.661Z,6.00
2022-10-09T06:43:12.652Z,6.10
2022-10-09T06:44:16.355Z,6.60
2022-10-09T06:45:13.644Z,7.00
2022-10-09T06:46:12.721Z,6.00
2022-10-09T06:47:12.632Z,6.50
2022-10-09T06:48:12.616Z,8.20
2022-10-09T06:49:12.653Z,6.40
2022-10-09T06:50:12.611Z,6.20
2022-10-09T06:51:12.590Z,6.60
2022-10-09T06:52:12.604Z,8.60
2022-10-09T06:53:12.574Z,7.90
2022-10-09T06:54:12.597Z,6.50
2022-10-09T06:55:12.565Z,7.60
2022-10-09T06:56:12.558Z,10.50
2022-10-09T06:57:12.562Z,5.70
2022-10-09T06:58:12.595Z,8.20
2022-10-09T06:59:12.570Z,6.00
2022-10-09T07:00:12.524Z,7.60
2022-10-09T07:01:12.619Z,5.20
2022-10-09T07:02:12.558Z,4.90
2022-10-09T07:03:12.597Z,5.20
2022-10-09T07:04:12.564Z,6.00
2022-10-09T07:05:12.487Z,7.80
2022-10-09T07:06:12.490Z,6.10
2022-10-09T07:07:12.473Z,8.90
2022-10-09T07:08:12.463Z,14.10
2022-10-09T07:09:12.485Z,11.00
2022-10-09T07:10:12.460Z,10.20
2022-10-09T07:11:12.455Z,11.40
2022-10-09T07:12:12.449Z,5.50
2022-10-09T07:13:12.443Z,11.50
2022-10-09T07:14:12.445Z,6.40
2022-10-09T07:15:12.410Z,7.50
2022-10-09T07:16:12.459Z,6.20
2022-10-09T07:17:12.400Z,8.00
2022-10-09T07:18:12.420Z,16.10
2022-10-09T07:19:12.376Z,5.30
2022-10-09T07:20:12.381Z,5.30
2022-10-09T07:21:12.367Z,7.80
2022-10-09T07:22:12.361Z,3.70
2022-10-09T07:23:12.380Z,9.70
2022-10-09T07:24:12.340Z,9.00
2022-10-09T07:25:12.336Z,9.90
2022-10-09T07:26:12.327Z,5.20
2022-10-09T07:27:12.327Z,4.30
2022-10-09T07:28:12.435Z,6.10
2022-10-09T07:29:12.301Z,8.90
2022-10-09T07:30:12.298Z,6.70
2022-10-09T07:31:12.345Z,3.70
2022-10-09T07:32:12.282Z,6.30
2022-10-09T07:33:12.304Z,6.40
2022-10-09T07:34:12.274Z,6.80
2022-10-09T07:35:12.258Z,8.30
2022-10-09T07:36:12.251Z,5.10
2022-10-09T07:37:12.245Z,6.20
2022-10-09T07:38:12.237Z,8.40
2022-10-09T07:39:12.256Z,6.10
2022-10-09T07:40:12.220Z,8.10
2022-10-09T07:41:12.211Z,9.70
2022-10-09T07:42:12.208Z,4.60
2022-10-09T07:43:12.229Z,5.80
2022-10-09T07:44:12.243Z,4.70
2022-10-09T07:45:12.193Z,6.40
2022-10-09T07:46:12.202Z,5.00
2022-10-09T07:47:12.168Z,5.70
2022-10-09T07:48:12.193Z,6.10
2022-10-09T07:49:12.191Z,4.40
2022-10-09T07:50:12.154Z,5.90
2022-10-09T07:51:12.149Z,4.90
2022-10-09T07:52:12.133Z,6.10
2022-10-09T07:53:12.126Z,5.80
2022-10-09T07:54:12.145Z,10.20
2022-10-09T07:55:12.108Z,9.20
2022-10-09T07:56:12.101Z,9.70
2022-10-09T07:57:12.133Z,13.10
2022-10-09T07:58:12.085Z,11.50
2022-10-09T07:59:12.105Z,7.00
2022-10-09T08:00:12.070Z,6.20
2022-10-09T08:01:16.137Z,8.20
2022-10-09T08:02:13.103Z,7.50
2022-10-09T08:03:12.052Z,6.60
2022-10-09T08:04:12.065Z,6.30
2022-10-09T08:05:12.036Z,7.80
2022-10-09T08:06:12.027Z,7.20
2022-10-09T08:07:12.017Z,7.50
2022-10-09T08:08:12.018Z,6.30
2022-10-09T08:09:12.031Z,10.20
2022-10-09T08:10:12.002Z,7.30
2022-10-09T08:11:11.997Z,10.80
2022-10-09T08:12:11.984Z,6.10
2022-10-09T08:13:11.978Z,5.70
2022-10-09T08:14:16.611Z,6.00
2022-10-09T08:15:13.961Z,6.00
2022-10-09T08:16:11.977Z,6.70
2022-10-09T08:17:11.948Z,5.90
2022-10-09T08:18:11.977Z,8.90
2022-10-09T08:19:11.957Z,11.60
2022-10-09T08:20:11.927Z,7.50
2022-10-09T08:21:11.922Z,11.10
2022-10-09T08:22:11.916Z,5.70
2022-10-09T08:23:11.903Z,8.90
2022-10-09T08:24:11.926Z,5.60
2022-10-09T08:25:11.890Z,6.00
2022-10-09T08:26:11.883Z,11.80
2022-10-09T08:27:11.875Z,6.10
2022-10-09T08:28:11.951Z,6.10
2022-10-09T08:29:11.877Z,9.50
2022-10-09T08:30:11.855Z,13.20
2022-10-09T08:31:11.920Z,10.80
2022-10-09T08:32:11.960Z,13.30
2022-10-09T08:33:11.832Z,21.10
2022-10-09T08:34:11.850Z,6.80
2022-10-09T08:35:11.812Z,7.60
2022-10-09T08:36:11.851Z,6.10
2022-10-09T08:37:11.799Z,7.60
2022-10-09T08:38:25.314Z,8.80
2022-10-09T08:39:13.808Z,6.70
2022-10-09T08:40:11.769Z,6.60
2022-10-09T08:41:11.786Z,11.20
2022-10-09T08:42:12.768Z,19.10
2022-10-09T08:43:11.759Z,11.40
2022-10-09T08:44:11.773Z,8.30
2022-10-09T08:45:11.745Z,8.40
2022-10-09T08:46:11.756Z,8.00
2022-10-09T08:47:11.735Z,7.90
2022-10-09T08:48:11.716Z,6.70
2022-10-09T08:49:11.746Z,8.50
2022-10-09T08:50:11.709Z,9.80
2022-10-09T08:51:11.702Z,7.80
2022-10-09T08:52:11.690Z,7.70
2022-10-09T08:53:11.678Z,7.40
2022-10-09T08:54:11.693Z,8.30
2022-10-09T08:55:11.670Z,6.90
2022-10-09T08:56:11.657Z,6.10
2022-10-09T08:57:11.649Z,6.00
2022-10-09T08:58:11.642Z,6.20
2022-10-09T08:59:11.661Z,7.20
2022-10-09T09:00:11.626Z,6.90
2022-10-09T09:01:11.615Z,8.10
2022-10-09T09:02:11.609Z,8.50
2022-10-09T09:03:11.609Z,8.00
2022-10-09T09:04:11.651Z,7.60
2022-10-09T09:05:11.589Z,7.70
2022-10-09T09:06:11.582Z,7.10
2022-10-09T09:07:11.571Z,7.40
2022-10-09T09:08:11.572Z,6.60
2022-10-09T09:09:11.584Z,6.60
2022-10-09T09:10:11.549Z,6.90
2022-10-09T09:11:11.543Z,6.90
2022-10-09T09:12:11.536Z,7.30
2022-10-09T09:13:11.528Z,6.00
2022-10-09T09:14:11.553Z,6.10
2022-10-09T09:15:11.519Z,7.40
2022-10-09T09:16:11.593Z,6.80
2022-10-09T09:17:11.507Z,7.50
2022-10-09T09:18:11.500Z,8.90
2022-10-09T09:19:11.522Z,8.60
2022-10-09T09:20:11.478Z,8.30
2022-10-09T09:21:11.467Z,8.00
2022-10-09T09:22:11.464Z,8.20
2022-10-09T09:23:11.463Z,7.20
2022-10-09T09:24:11.481Z,7.70
2022-10-09T09:25:11.444Z,6.60
2022-10-09T09:26:11.435Z,6.90
2022-10-09T09:27:11.426Z,8.00
2022-10-09T09:28:12.489Z,6.90
2022-10-09T09:29:12.446Z,7.00
2022-10-09T09:30:11.408Z,7.20
2022-10-09T09:31:11.432Z,7.10
2022-10-09T09:32:11.398Z,6.50
2022-10-09T09:33:11.386Z,7.20
2022-10-09T09:34:11.404Z,5.90
2022-10-09T09:35:11.370Z,6.40
2022-10-09T09:36:11.358Z,5.80
2022-10-09T09:37:11.376Z,6.90
2022-10-09T09:38:11.391Z,8.50
2022-10-09T09:41:13.317Z,6.20
2022-10-09T09:42:11.330Z,6.50
2022-10-09T09:43:11.328Z,6.50
2022-10-09T09:44:11.302Z,5.50
2022-10-09T09:45:11.322Z,8.40
2022-10-09T09:46:11.360Z,6.20
2022-10-09T09:47:11.284Z,7.80
2022-10-09T09:48:11.286Z,6.30
2022-10-09T09:49:11.302Z,6.90
2022-10-09T09:50:28.424Z,7.60
2022-10-09T09:51:28.087Z,7.90
2022-10-09T09:52:13.243Z,6.60
2022-10-09T09:53:11.280Z,6.80
2022-10-09T09:54:11.230Z,6.00
2022-10-09T09:55:11.285Z,5.60
2022-10-09T09:56:11.244Z,6.70
2022-10-09T09:57:14.867Z,6.30
2022-10-09T09:58:13.207Z,5.70
2022-10-09T09:59:11.191Z,6.00
2022-10-09T10:00:11.198Z,6.30
2022-10-09T10:01:11.231Z,7.60
2022-10-09T10:02:11.277Z,6.60
2022-10-09T10:03:11.156Z,6.20
2022-10-09T10:04:11.151Z,7.20
2022-10-09T10:05:11.162Z,6.30
2022-10-09T10:06:11.136Z,8.10
2022-10-09T10:07:11.130Z,8.30
2022-10-09T10:08:11.119Z,7.20
2022-10-09T10:09:11.108Z,6.30
2022-10-09T10:10:11.126Z,6.10
2022-10-09T10:11:11.091Z,6.70
2022-10-09T10:12:11.086Z,7.60
2022-10-09T10:13:11.073Z,6.10
2022-10-09T10:14:11.072Z,5.80
2022-10-09T10:15:11.086Z,6.40
2022-10-09T10:16:11.118Z,5.90
2022-10-09T10:17:14.588Z,6.10
2022-10-09T10:18:13.035Z,5.70
2022-10-09T10:19:11.031Z,5.40
2022-10-09T10:20:11.050Z,6.00
2022-10-09T10:21:11.021Z,6.20
2022-10-09T10:22:11.256Z,8.20
2022-10-09T10:23:10.997Z,7.30
2022-10-09T10:24:10.984Z,6.60
2022-10-09T10:25:12.689Z,7.30
2022-10-09T10:26:10.978Z,6.50
2022-10-09T10:27:10.961Z,8.30
2022-10-09T10:28:11.036Z,6.00
2022-10-09T10:29:10.949Z,6.90
2022-10-09T10:30:10.978Z,5.50
2022-10-09T10:31:10.974Z,6.50
2022-10-09T10:32:10.928Z,5.60
2022-10-09T10:33:10.920Z,5.50
2022-10-09T10:34:10.913Z,5.40
2022-10-09T10:35:10.930Z,5.00
2022-10-09T10:36:10.991Z,4.60
2022-10-09T10:37:10.895Z,5.80
2022-10-09T10:38:10.885Z,4.80
2022-10-09T10:39:10.875Z,4.90
2022-10-09T10:40:11.121Z,5.50
2022-10-09T10:41:10.859Z,4.80
2022-10-09T10:42:10.863Z,5.50
2022-10-09T10:43:10.853Z,5.00
2022-10-09T10:44:10.836Z,5.70
2022-10-09T10:45:10.853Z,4.30
2022-10-09T10:46:10.822Z,5.90
2022-10-09T10:47:10.822Z,5.10
2022-10-09T10:48:10.800Z,5.60
2022-10-09T10:49:10.824Z,5.00
2022-10-09T10:50:10.817Z,4.70
2022-10-09T10:51:10.803Z,5.40
2022-10-09T10:52:10.773Z,5.70
2022-10-09T10:53:10.934Z,5.90
2022-10-09T10:54:10.757Z,5.10
2022-10-09T10:55:10.782Z,6.30
2022-10-09T10:56:10.739Z,6.50
2022-10-09T10:57:10.734Z,6.00
2022-10-09T10:58:10.952Z,5.20
2022-10-09T10:59:10.716Z,7.00
2022-10-09T11:00:10.744Z,4.90
2022-10-09T11:01:11.803Z,5.80
2022-10-09T11:02:10.743Z,6.00
2022-10-09T11:03:10.724Z,6.20
2022-10-09T11:04:10.679Z,4.40
2022-10-09T11:05:10.720Z,6.50
2022-10-09T11:06:10.659Z,4.20
2022-10-09T11:07:10.654Z,3.70
2022-10-09T11:08:10.658Z,7.00
2022-10-09T11:09:10.637Z,3.40
2022-10-09T11:10:10.652Z,3.70
2022-10-09T11:11:10.624Z,4.60
2022-10-09T11:12:19.536Z,4.60
2022-10-09T11:13:12.614Z,3.90
2022-10-09T11:14:10.671Z,4.00
2022-10-09T11:15:10.617Z,4.50
2022-10-09T11:16:10.649Z,4.80
2022-10-09T11:17:10.566Z,3.70
2022-10-09T11:18:10.562Z,3.30
2022-10-09T11:19:10.560Z,4.30
2022-10-09T11:20:10.578Z,4.60
2022-10-09T11:21:10.548Z,4.80
2022-10-09T11:22:10.564Z,4.90
2022-10-09T11:23:10.528Z,4.10
2022-10-09T11:24:10.528Z,3.90
2022-10-09T11:25:10.509Z,3.50
2022-10-09T11:26:10.563Z,3.20
2022-10-09T11:27:10.494Z,3.80
2022-10-09T11:28:10.520Z,3.80
2022-10-09T11:29:10.485Z,3.20
2022-10-09T11:30:10.488Z,2.70
2022-10-09T11:31:10.546Z,4.00
2022-10-09T11:32:10.479Z,4.00
2022-10-09T11:33:10.452Z,3.20
2022-10-09T11:34:10.449Z,3.40
2022-10-09T11:35:10.435Z,3.80
2022-10-09T11:36:10.500Z,4.30
2022-10-09T11:37:10.420Z,3.20
2022-10-09T11:38:11.344Z,2.10
2022-10-09T11:39:10.412Z,3.00
2022-10-09T11:40:10.397Z,3.70
2022-10-09T11:41:10.421Z,2.70
2022-10-09T11:42:10.399Z,3.90
2022-10-09T11:43:10.373Z,4.50
2022-10-09T11:44:10.376Z,2.60
2022-10-09T11:45:10.361Z,4.50
2022-10-09T11:46:10.422Z,3.10
2022-10-09T11:47:10.354Z,2.50
2022-10-09T11:48:10.338Z,5.10
2022-10-09T11:49:10.334Z,4.30
2022-10-09T11:50:10.319Z,2.90
2022-10-09T11:51:10.336Z,2.40
2022-10-09T11:52:10.320Z,3.20
2022-10-09T11:53:10.314Z,3.30
2022-10-09T11:54:10.302Z,3.00
2022-10-09T11:55:10.301Z,3.90
2022-10-09T11:56:10.317Z,3.90
2022-10-09T11:57:14.953Z,2.70
2022-10-09T11:58:12.256Z,2.80
2022-10-09T11:59:10.273Z,2.60
2022-10-09T12:00:10.272Z,3.10
2022-10-09T12:01:10.308Z,3.20
2022-10-09T12:02:10.367Z,3.80
2022-10-09T12:03:10.230Z,3.00
2022-10-09T12:04:10.224Z,3.00
2022-10-09T12:05:10.231Z,4.10
2022-10-09T12:06:10.228Z,3.90
2022-10-09T12:07:10.196Z,4.00
2022-10-09T12:08:11.223Z,4.10
2022-10-09T12:09:10.185Z,4.30
2022-10-09T12:10:10.186Z,4.40
2022-10-09T12:11:10.249Z,2.60
2022-10-09T12:12:10.159Z,4.10
2022-10-09T12:13:10.149Z,2.00
2022-10-09T12:14:10.165Z,2.60
2022-10-09T12:15:10.131Z,3.50
2022-10-09T12:16:10.209Z,3.40
2022-10-09T12:17:10.120Z,1.70
2022-10-09T12:18:10.109Z,3.50
2022-10-09T12:19:10.103Z,4.70
2022-10-09T12:20:10.100Z,4.40
2022-10-09T12:21:10.110Z,3.50
2022-10-09T12:22:10.082Z,3.80
2022-10-09T12:23:27.124Z,2.40
2022-10-09T12:24:12.060Z,2.60
2022-10-09T12:25:10.052Z,3.20
2022-10-09T12:26:10.088Z,3.50
2022-10-09T12:27:10.052Z,4.00
2022-10-09T12:28:10.079Z,3.60
2022-10-09T12:29:10.025Z,4.60
2022-10-09T12:30:10.028Z,4.30
2022-10-09T12:31:10.100Z,2.70
2022-10-09T12:32:10.002Z,3.30
2022-10-09T12:33:09.992Z,4.60
2022-10-09T12:34:10.313Z,2.80
2022-10-09T12:35:09.974Z,5.10
2022-10-09T12:36:09.999Z,3.90
2022-10-09T12:37:09.966Z,4.10
2022-10-09T12:38:09.966Z,3.70
2022-10-09T12:39:09.943Z,3.50
2022-10-09T12:40:09.991Z,2.30
2022-10-09T12:41:09.959Z,4.20
2022-10-09T12:42:09.942Z,4.10
2022-10-09T12:43:09.919Z,4.20
2022-10-09T12:44:09.910Z,3.30
2022-10-09T12:45:09.900Z,3.20
2022-10-09T12:46:09.967Z,2.80
2022-10-09T12:47:09.885Z,3.80
2022-10-09T12:48:09.878Z,4.00
2022-10-09T12:49:09.883Z,3.60
2022-10-09T12:50:09.863Z,2.50
2022-10-09T12:51:09.883Z,3.50
2022-10-09T12:52:09.848Z,4.60
2022-10-09T12:53:09.841Z,3.40
2022-10-09T12:54:09.837Z,3.10
2022-10-09T12:55:09.851Z,3.40
2022-10-09T12:56:09.901Z,4.70
2022-10-09T12:57:09.808Z,3.10
2022-10-09T12:58:09.814Z,2.70
2022-10-09T12:59:09.793Z,3.30
2022-10-09T13:00:09.781Z,3.30
2022-10-09T13:01:09.890Z,2.80
2022-10-09T13:02:09.896Z,3.40
2022-10-09T13:03:09.763Z,3.20
2022-10-09T13:04:09.803Z,2.70
2022-10-09T13:05:09.747Z,2.40
2022-10-09T13:06:09.770Z,2.20
2022-10-09T13:07:09.742Z,3.10
2022-10-09T13:08:09.723Z,3.20
2022-10-09T13:09:09.716Z,2.20
2022-10-09T13:10:09.705Z,2.20
2022-10-09T13:11:09.705Z,1.70
2022-10-09T13:12:09.717Z,2.50
2022-10-09T13:13:09.691Z,3.60
2022-10-09T13:14:09.689Z,2.50